アシガバート の空港の天気 - METARとTAF

アシガバート空港 ( UTAA / ASB ) - トルクメニスタン アシガバート
飛行場実況気象(Metar)
観測時間04/27 09:00 TMT (04/27 04:00 UTC)
風向・風速東南東 6m/s
視程10km以上
天気現象
少しの雲 雲底高度 7010m
気温21℃
湿度26%
気圧1020hPa
METARUTAA 270400Z 11012KT 9999 FEW230 21/01 Q1020 R88/70D NOSIG
過去の天気等 Google飛行場航空写真 Wunderground天気予報

過去48時間のMETAR

飛行場予報(TAF)
発表時間: 4/27 03:45 TMT (4/26 22:45 UTC)
予報対象時間: 27日5時 TMT ~ 28日5時 TMT
風向・風速東 9m/s
視程6,000m
全天の4割程度の雲 雲底高度 1,520m
27日5時 TMT ~ 27日10時 TMT に一時的に
風向・風速北東 7m/s
27日10時 TMT ~ 27日20時 TMT に一時的に
風向・風速東南東 9m/s 瞬間風速 14m/s
視程3,000m
天気現象高い風塵
TAF UTAA 262245Z 2700/2724 09018KT 6000 SCT050 530009
TEMPO 2700/2705 04014KT
TEMPO 2705/2715 11018G28KT 3000 BLDU